createdAt,value
2022-07-26T00:01:41.488Z,11977.02344
2022-07-26T00:16:43.928Z,6205.56543
2022-07-26T00:31:46.325Z,5452.23389
2022-07-26T00:46:48.688Z,12959.17871
2022-07-26T01:01:51.150Z,12945.99512
2022-07-26T01:16:53.572Z,12278.35547
2022-07-26T01:31:55.834Z,11336.69238
2022-07-26T01:46:58.195Z,10666.22754
2022-07-26T02:02:00.680Z,6740.43018
2022-07-26T02:17:03.032Z,1369.17932
2022-07-26T02:32:05.305Z,1098.92175
2022-07-26T02:47:07.617Z,863.5058
2022-07-26T03:02:09.933Z,622.43988
2022-07-26T03:17:12.251Z,290.0325
2022-07-26T03:32:14.514Z,122.41631
2022-07-26T03:47:16.807Z,39.54988
2022-07-26T04:02:19.154Z,7.53331
2022-07-26T04:17:21.623Z,0.94166
2022-07-26T04:32:23.933Z,0
2022-07-26T04:47:26.254Z,0
2022-07-26T05:02:28.682Z,0
2022-07-26T05:17:31.128Z,0
2022-07-26T05:32:37.565Z,0
2022-07-26T05:47:39.843Z,0
2022-07-26T06:02:42.214Z,0
2022-07-26T06:17:44.641Z,0
2022-07-26T06:32:47.047Z,0
2022-07-26T06:47:49.352Z,0
2022-07-26T07:02:51.860Z,0
2022-07-26T07:17:54.124Z,0
2022-07-26T07:32:56.554Z,0
2022-07-26T07:47:59.000Z,0
2022-07-26T08:03:01.266Z,0
2022-07-26T08:18:03.621Z,0
2022-07-26T08:33:08.858Z,0
2022-07-26T08:48:18.396Z,0
2022-07-26T09:03:21.141Z,0
2022-07-26T09:18:23.515Z,0
2022-07-26T09:33:26.648Z,0
2022-07-26T09:48:36.509Z,0
2022-07-26T10:03:48.717Z,0
2022-07-26T10:18:51.062Z,0
2022-07-26T10:33:53.639Z,0
2022-07-26T10:48:56.099Z,0
2022-07-26T11:03:58.444Z,0
2022-07-26T11:19:00.725Z,0
2022-07-26T11:34:02.976Z,0
2022-07-26T11:49:05.530Z,2.82499
2022-07-26T12:04:08.458Z,23.5416
2022-07-26T12:19:11.161Z,87.57475
2022-07-26T12:34:13.966Z,189.27444
2022-07-26T12:49:16.661Z,300.39078
2022-07-26T13:04:19.266Z,483.07358
2022-07-26T13:19:21.540Z,1571.63708
2022-07-26T13:34:23.851Z,2297.65991
2022-07-26T13:49:26.256Z,2754.36694
2022-07-26T14:04:29.117Z,3049.10767
2022-07-26T14:19:31.549Z,3316.54028
2022-07-26T14:34:33.827Z,3928.62183
2022-07-26T14:49:36.243Z,4264.7959
2022-07-26T15:04:38.519Z,3949.33838
2022-07-26T15:19:40.862Z,4334.479
2022-07-26T15:34:43.163Z,5376.90088
2022-07-26T15:49:45.503Z,6925.93799
2022-07-26T16:04:47.818Z,7416.54492
2022-07-26T16:19:51.102Z,7234.80371
2022-07-26T16:34:53.404Z,7558.73633
2022-07-26T16:49:55.705Z,7122.74609
2022-07-26T17:04:58.175Z,6844.95508
2022-07-26T17:20:00.514Z,6646.26416
2022-07-26T17:35:02.780Z,6594.47266
2022-07-26T18:05:41.079Z,6442.86475
2022-07-26T18:20:43.829Z,6601.06396
2022-07-26T18:35:46.153Z,6569.04736
2022-07-26T18:50:48.413Z,6635.90576
2022-07-26T19:05:53.270Z,6797.87207
2022-07-26T19:20:55.696Z,6918.40479
2022-07-26T19:35:57.993Z,7026.69629
2022-07-26T19:51:00.288Z,7222.5625
2022-07-26T20:06:02.657Z,7296.95361
2022-07-26T20:21:04.973Z,7378.87842
2022-07-26T20:36:07.404Z,7435.37842
2022-07-26T20:51:13.712Z,7572.86133
2022-07-26T21:06:16.435Z,7563.44482
2022-07-26T21:21:18.755Z,7529.54492
2022-07-26T21:36:21.061Z,7432.55322
2022-07-26T21:51:23.371Z,7407.12842
2022-07-26T22:06:25.667Z,7188.6626
2022-07-26T22:21:27.926Z,7208.4375
2022-07-26T22:36:30.379Z,7420.31152
2022-07-26T22:51:32.714Z,7671.73584
2022-07-26T23:06:36.165Z,8234.85059
2022-07-26T23:21:38.509Z,8937.33203
2022-07-26T23:36:40.816Z,9714.20508
2022-07-26T23:51:43.115Z,10445.87793
